createdAt,value
2018-10-09T00:09:21.963Z,10.6
2018-10-09T00:24:36.431Z,10.6
2018-10-09T00:39:51.089Z,10.6
2018-10-09T00:54:57.203Z,10.6
2018-10-09T01:10:19.919Z,10.6
2018-10-09T01:25:34.659Z,10.7
2018-10-09T01:40:49.335Z,11
2018-10-09T01:56:04.000Z,11.1
2018-10-09T02:11:17.153Z,11.1
2018-10-09T02:26:33.523Z,11.1
2018-10-09T02:41:48.043Z,11
2018-10-09T02:57:02.707Z,10.8
2018-10-09T03:12:08.349Z,10.6
2018-10-09T03:27:31.839Z,10.5
2018-10-09T03:42:46.086Z,10.4
2018-10-09T03:58:00.508Z,10.2
2018-10-09T04:13:16.532Z,10.3
2018-10-09T04:28:27.599Z,10.3
2018-10-09T04:43:43.589Z,10.3
2018-10-09T04:58:57.913Z,10.3
2018-10-09T05:14:12.327Z,10.2
2018-10-09T05:29:18.188Z,10
2018-10-09T05:44:41.018Z,10.1
2018-10-09T05:59:55.439Z,10.1
2018-10-09T06:15:09.805Z,10.2
2018-10-09T06:30:23.957Z,10.5
2018-10-09T06:45:38.408Z,10.7
2018-10-09T07:00:53.293Z,11.1
2018-10-09T07:16:08.055Z,11.9
2018-10-09T07:31:23.328Z,12.4
2018-10-09T07:46:38.695Z,12.9
2018-10-09T08:01:54.084Z,13
2018-10-09T08:17:09.695Z,13.7
2018-10-09T08:32:25.925Z,14.3
2018-10-09T08:47:38.630Z,14.9
2018-10-09T09:02:58.137Z,15.7
2018-10-09T09:18:15.139Z,16.6
2018-10-09T09:33:32.186Z,17.3
2018-10-09T09:48:38.592Z,18.2
2018-10-09T10:04:07.291Z,18.5
2018-10-09T10:19:25.393Z,18.7
2018-10-09T10:34:43.753Z,19
2018-10-09T10:50:02.927Z,19.6
2018-10-09T11:05:12.680Z,19.9
2018-10-09T11:20:42.640Z,20.4
2018-10-09T11:36:05.714Z,20.9
2018-10-09T11:51:24.000Z,21.3
2018-10-09T12:06:45.584Z,22.1
2018-10-09T12:21:51.815Z,22.5
2018-10-09T12:37:24.463Z,22.9
2018-10-09T12:52:52.696Z,23.2
2018-10-09T13:08:15.064Z,23.2
2018-10-09T13:23:37.328Z,23.4
2018-10-09T13:39:00.299Z,23.4
2018-10-09T13:54:07.462Z,23.5
2018-10-09T14:09:40.444Z,23.5
2018-10-09T14:25:09.401Z,23.5
2018-10-09T14:40:32.546Z,23.4
2018-10-09T14:55:55.349Z,23.3
2018-10-09T15:11:17.644Z,23
2018-10-09T15:26:23.147Z,22.9
2018-10-09T15:41:55.722Z,22.3
2018-10-09T15:57:21.874Z,21.8
2018-10-09T16:12:42.511Z,21.3
2018-10-09T16:28:02.240Z,20.7
2018-10-09T16:43:21.621Z,20.2
2018-10-09T16:58:32.606Z,19.7
2018-10-09T17:13:58.283Z,19.3
2018-10-09T17:29:16.121Z,18.9
2018-10-09T17:44:34.419Z,18.5
2018-10-09T17:59:51.648Z,18
2018-10-09T18:15:04.827Z,17.5
2018-10-09T18:30:25.996Z,16.9
2018-10-09T18:45:43.019Z,16.4
2018-10-09T19:00:59.610Z,16
2018-10-09T19:16:03.445Z,15.6
2018-10-09T19:31:32.690Z,15.5
2018-10-09T19:46:49.048Z,15.1
2018-10-09T20:02:05.330Z,14.9
2018-10-09T20:17:21.380Z,14.6
2018-10-09T20:32:29.697Z,14.4
2018-10-09T20:47:53.283Z,14.1
2018-10-09T21:03:09.115Z,13.9
2018-10-09T21:18:24.843Z,13.6
2018-10-09T21:33:40.592Z,14.2
2018-10-09T21:48:54.497Z,13.7
2018-10-09T22:04:11.839Z,13.4
2018-10-09T22:19:27.481Z,13.3
2018-10-09T22:34:43.170Z,13.1
2018-10-09T22:49:48.471Z,12.9
2018-10-09T23:05:13.725Z,12.7
2018-10-09T23:20:29.017Z,12.6
2018-10-09T23:35:44.309Z,12.5
2018-10-09T23:50:59.513Z,12.4
